createdAt,value
2023-04-25T00:00:49.579Z,7.53
2023-04-25T00:03:22.257Z,7.63
2023-04-25T00:05:54.179Z,7.68
2023-04-25T00:08:26.065Z,7.68
2023-04-25T00:10:59.293Z,7.77
2023-04-25T00:13:30.798Z,7.82
2023-04-25T00:16:03.627Z,7.73
2023-04-25T00:18:35.773Z,7.74
2023-04-25T00:21:07.344Z,7.72
2023-04-25T00:23:39.802Z,7.68
2023-04-25T00:26:11.535Z,7.54
2023-04-25T00:28:43.169Z,7.46
2023-04-25T00:31:15.219Z,7.49
2023-04-25T00:33:46.780Z,7.51
2023-04-25T00:36:19.204Z,7.53
2023-04-25T00:38:50.742Z,7.50
2023-04-25T00:41:22.628Z,7.46
2023-04-25T00:43:56.387Z,7.48
2023-04-25T00:46:28.066Z,7.45
2023-04-25T00:48:59.573Z,7.45
2023-04-25T00:51:31.800Z,7.46
2023-04-25T00:54:03.579Z,7.49
2023-04-25T00:56:35.218Z,7.52
2023-04-25T00:59:06.946Z,7.57
2023-04-25T01:01:40.106Z,7.59
2023-04-25T01:04:12.119Z,7.62
2023-04-25T01:06:43.907Z,7.66
2023-04-25T01:09:15.857Z,7.68
2023-04-25T01:11:47.352Z,7.66
2023-04-25T01:14:18.895Z,7.66
2023-04-25T01:16:50.769Z,7.67
2023-04-25T01:19:22.331Z,7.68
2023-04-25T01:21:53.899Z,7.67
2023-04-25T01:24:25.685Z,7.65
2023-04-25T01:26:57.926Z,7.65
2023-04-25T01:29:29.938Z,7.65
2023-04-25T01:32:02.553Z,7.64
2023-04-25T01:34:34.056Z,7.63
2023-04-25T01:37:05.653Z,7.59
2023-04-25T01:39:37.353Z,7.53
2023-04-25T01:42:09.490Z,7.48
2023-04-25T01:44:41.008Z,7.43
2023-04-25T01:47:12.593Z,7.42
2023-04-25T01:49:44.113Z,7.41
2023-04-25T01:52:15.626Z,7.33
2023-04-25T01:54:47.392Z,7.35
2023-04-25T01:57:18.877Z,7.37
2023-04-25T01:59:50.774Z,7.39
2023-04-25T02:02:22.311Z,7.34
2023-04-25T02:04:55.187Z,7.32
2023-04-25T02:07:27.442Z,7.33
2023-04-25T02:09:59.075Z,7.36
2023-04-25T02:12:30.846Z,7.38
2023-04-25T02:15:02.532Z,7.41
2023-04-25T02:17:34.514Z,7.40
2023-04-25T02:20:06.573Z,7.43
2023-04-25T02:22:38.105Z,7.46
2023-04-25T02:25:10.354Z,7.49
2023-04-25T02:27:41.847Z,7.52
2023-04-25T02:30:13.748Z,7.51
2023-04-25T02:32:45.678Z,7.51
2023-04-25T02:35:17.523Z,7.29
2023-04-25T02:37:49.246Z,7.37
2023-04-25T02:40:20.781Z,7.39
2023-04-25T02:42:52.469Z,7.44
2023-04-25T02:45:24.063Z,7.47
2023-04-25T02:47:55.666Z,7.39
2023-04-25T02:50:27.180Z,7.42
2023-04-25T02:52:58.603Z,7.40
2023-04-25T02:55:30.237Z,7.45
2023-04-25T02:58:01.712Z,7.31
2023-04-25T03:00:33.209Z,7.31
2023-04-25T03:03:04.735Z,7.00
2023-04-25T03:05:36.358Z,6.86
2023-04-25T03:08:07.879Z,6.99
2023-04-25T03:10:39.594Z,7.03
2023-04-25T03:13:11.148Z,7.03
2023-04-25T03:15:42.633Z,7.10
2023-04-25T03:18:14.139Z,7.06
2023-04-25T03:20:45.686Z,7.04
2023-04-25T03:23:17.159Z,7.09
2023-04-25T03:25:48.599Z,7.08
2023-04-25T03:28:20.100Z,7.12
2023-04-25T03:30:51.654Z,7.01
2023-04-25T03:33:23.372Z,6.86
2023-04-25T03:35:54.870Z,6.77
2023-04-25T03:38:26.308Z,6.80
2023-04-25T03:40:57.849Z,6.84
2023-04-25T03:43:29.403Z,6.68
2023-04-25T03:46:02.433Z,6.74
2023-04-25T03:48:34.037Z,6.75
2023-04-25T03:51:05.617Z,6.79
2023-04-25T03:53:37.121Z,6.78
2023-04-25T03:56:08.568Z,6.78
2023-04-25T03:58:40.036Z,6.71
2023-04-25T04:01:11.883Z,6.64
2023-04-25T04:03:43.602Z,6.57
2023-04-25T04:06:15.898Z,6.56
2023-04-25T04:08:47.794Z,6.38
2023-04-25T04:11:19.329Z,6.42
2023-04-25T04:13:51.051Z,6.43
2023-04-25T04:16:22.705Z,6.35
2023-04-25T04:18:54.243Z,6.34
2023-04-25T04:21:25.739Z,6.40
2023-04-25T04:23:58.687Z,6.37
2023-04-25T04:26:30.360Z,6.42
2023-04-25T04:29:02.347Z,6.44
2023-04-25T04:31:33.952Z,6.41
2023-04-25T04:34:05.716Z,6.44
2023-04-25T04:36:37.173Z,6.47
2023-04-25T04:39:10.200Z,6.46
2023-04-25T04:41:41.714Z,6.46
2023-04-25T04:44:13.462Z,6.37
2023-04-25T04:46:45.474Z,6.36
2023-04-25T04:49:17.102Z,6.50
2023-04-25T04:51:50.639Z,6.56
2023-04-25T04:54:22.109Z,6.52
2023-04-25T04:56:53.734Z,6.59
2023-04-25T04:59:25.201Z,6.72
2023-04-25T05:01:56.673Z,6.73
2023-04-25T05:04:28.236Z,6.74
2023-04-25T05:06:59.867Z,6.73
2023-04-25T05:09:31.392Z,6.77
2023-04-25T05:12:03.247Z,6.88
2023-04-25T05:14:34.809Z,6.87
2023-04-25T05:17:09.330Z,6.94
2023-04-25T05:19:40.808Z,6.75
2023-04-25T05:22:12.280Z,6.64
2023-04-25T05:24:43.861Z,6.71
2023-04-25T05:27:17.984Z,6.73
2023-04-25T05:29:49.507Z,6.69
2023-04-25T05:32:21.105Z,6.81
2023-04-25T05:34:52.852Z,6.86
2023-04-25T05:37:24.440Z,6.88
2023-04-25T05:39:55.924Z,6.93
2023-04-25T05:42:27.559Z,6.98
2023-04-25T05:44:59.071Z,7.00
2023-04-25T05:47:30.753Z,6.78
2023-04-25T05:50:02.990Z,6.31
2023-04-25T05:52:34.515Z,6.05
2023-04-25T05:55:06.716Z,6.08
2023-04-25T05:57:38.273Z,5.64
2023-04-25T06:00:10.586Z,5.76
2023-04-25T06:02:42.133Z,5.52
2023-04-25T06:05:13.886Z,5.57
2023-04-25T06:07:45.724Z,5.77
2023-04-25T06:10:17.185Z,5.84
2023-04-25T06:12:48.672Z,5.94
2023-04-25T06:17:54.895Z,6.06
2023-04-25T06:20:26.478Z,6.24
2023-04-25T06:22:58.256Z,6.35
2023-04-25T06:25:29.720Z,6.46
2023-04-25T06:28:01.189Z,6.65
2023-04-25T06:30:32.661Z,6.76
2023-04-25T06:33:04.367Z,6.68
2023-04-25T06:35:36.062Z,6.93
2023-04-25T06:38:07.543Z,7.12
2023-04-25T06:40:39.051Z,7.12
2023-04-25T06:43:10.860Z,7.55
2023-04-25T06:45:43.746Z,7.71
2023-04-25T06:48:16.629Z,7.76
2023-04-25T06:50:48.338Z,7.60
2023-04-25T06:53:19.895Z,7.57
2023-04-25T06:55:51.481Z,7.54
2023-04-25T06:58:23.258Z,7.49
2023-04-25T07:00:54.853Z,7.47
2023-04-25T07:03:26.516Z,7.67
2023-04-25T07:05:58.097Z,7.73
2023-04-25T07:08:30.596Z,7.81
2023-04-25T07:11:02.130Z,7.58
2023-04-25T07:13:33.649Z,7.85
2023-04-25T07:16:05.998Z,8.04
2023-04-25T07:18:37.456Z,8.19
2023-04-25T07:21:09.014Z,8.14
2023-04-25T07:23:41.739Z,8.17
2023-04-25T07:26:13.532Z,8.11
2023-04-25T07:28:45.264Z,7.81
2023-04-25T07:31:19.070Z,7.59
2023-04-25T07:33:50.574Z,7.64
2023-04-25T07:36:22.547Z,7.50
2023-04-25T07:38:54.035Z,7.55
2023-04-25T07:41:25.606Z,7.68
2023-04-25T07:43:57.122Z,7.78
2023-04-25T07:46:28.753Z,7.99
2023-04-25T07:49:00.224Z,8.00
2023-04-25T07:51:32.547Z,8.16
2023-04-25T07:54:03.937Z,8.30
2023-04-25T07:56:49.133Z,8.46
2023-04-25T07:59:23.637Z,8.79
2023-04-25T08:01:55.341Z,8.86
2023-04-25T08:04:27.178Z,8.87
2023-04-25T08:06:58.905Z,8.89
2023-04-25T08:09:34.834Z,8.94
2023-04-25T08:12:06.432Z,8.96
2023-04-25T08:14:38.346Z,9.05
2023-04-25T08:17:10.790Z,9.19
2023-04-25T08:19:42.116Z,9.26
2023-04-25T08:22:13.813Z,9.20
2023-04-25T08:24:45.292Z,9.07
2023-04-25T08:27:16.836Z,8.99
2023-04-25T08:29:48.610Z,8.89
2023-04-25T08:32:20.432Z,8.75
2023-04-25T08:34:54.988Z,8.87
2023-04-25T08:37:26.740Z,8.98
2023-04-25T08:39:58.258Z,9.15
2023-04-25T08:42:32.673Z,9.21
2023-04-25T08:45:07.041Z,9.21
2023-04-25T08:47:40.924Z,9.22
2023-04-25T08:50:12.753Z,9.46
2023-04-25T08:52:46.624Z,9.62
2023-04-25T08:55:18.369Z,9.83
2023-04-25T08:57:51.357Z,10.04
2023-04-25T09:00:23.852Z,9.89
2023-04-25T09:02:56.382Z,10.10
2023-04-25T09:05:29.762Z,10.53
2023-04-25T09:08:01.802Z,10.46
2023-04-25T09:10:33.683Z,10.70
2023-04-25T09:13:09.963Z,10.95
2023-04-25T09:15:50.339Z,11.23
2023-04-25T09:18:30.021Z,11.17
2023-04-25T09:21:14.234Z,11.13
2023-04-25T09:23:49.202Z,11.22
2023-04-25T09:26:22.332Z,11.30
2023-04-25T09:29:08.331Z,11.03
2023-04-25T09:31:39.891Z,11.37
2023-04-25T09:34:16.607Z,11.34
2023-04-25T09:36:48.190Z,11.07
2023-04-25T09:39:22.453Z,11.22
2023-04-25T09:41:57.917Z,11.06
2023-04-25T09:44:29.525Z,10.97
2023-04-25T09:47:01.110Z,10.76
2023-04-25T09:49:32.713Z,10.41
2023-04-25T09:52:04.252Z,10.40
2023-04-25T09:54:35.883Z,10.58
2023-04-25T09:57:15.928Z,10.44
2023-04-25T09:59:51.245Z,10.90
2023-04-25T10:02:27.607Z,11.30
2023-04-25T10:05:00.912Z,11.34
2023-04-25T10:07:34.965Z,11.38
2023-04-25T10:10:07.207Z,11.56
2023-04-25T10:12:40.517Z,11.63
2023-04-25T10:15:13.171Z,11.53
2023-04-25T10:17:45.013Z,11.22
2023-04-25T10:20:17.078Z,10.95
2023-04-25T10:22:55.119Z,10.54
2023-04-25T10:25:26.916Z,10.39
2023-04-25T10:28:00.800Z,9.82
2023-04-25T10:30:32.466Z,9.71
2023-04-25T10:33:19.161Z,9.45
2023-04-25T10:35:51.281Z,9.34
2023-04-25T10:38:22.865Z,9.33
2023-04-25T10:41:09.412Z,9.02
2023-04-25T10:43:45.321Z,9.01
2023-04-25T10:46:22.602Z,8.99
2023-04-25T10:48:57.753Z,8.87
2023-04-25T10:51:47.292Z,8.83
2023-04-25T10:54:24.063Z,8.87
2023-04-25T10:56:55.643Z,9.17
2023-04-25T10:59:29.076Z,9.44
2023-04-25T11:02:12.191Z,9.77
2023-04-25T11:04:45.517Z,10.07
2023-04-25T11:10:36.141Z,10.31
2023-04-25T11:13:07.695Z,10.24
2023-04-25T11:15:39.206Z,10.51
2023-04-25T11:18:11.010Z,10.11
2023-04-25T11:20:44.348Z,10.04
2023-04-25T11:23:16.777Z,10.19
2023-04-25T11:25:48.461Z,10.07
2023-04-25T11:28:25.626Z,10.01
2023-04-25T11:30:57.857Z,9.40
2023-04-25T11:33:29.577Z,9.39
2023-04-25T11:36:01.254Z,9.12
2023-04-25T11:38:32.970Z,8.94
2023-04-25T11:41:04.545Z,8.89
2023-04-25T11:43:36.509Z,8.55
2023-04-25T11:46:09.955Z,8.58
2023-04-25T11:48:43.160Z,8.53
2023-04-25T11:51:15.427Z,8.40
2023-04-25T11:53:47.190Z,8.43
2023-04-25T11:56:18.762Z,8.22
2023-04-25T11:59:04.169Z,8.22
2023-04-25T12:01:37.980Z,8.18
2023-04-25T12:04:17.501Z,7.99
2023-04-25T12:06:51.700Z,7.94
2023-04-25T12:09:32.003Z,7.93
2023-04-25T12:12:04.240Z,8.16
2023-04-25T12:14:37.305Z,8.29
2023-04-25T12:17:10.837Z,7.78
2023-04-25T12:19:42.701Z,8.17
2023-04-25T12:22:25.665Z,8.44
2023-04-25T12:24:59.377Z,8.34
2023-04-25T12:27:32.980Z,8.08
2023-04-25T12:30:05.037Z,7.83
2023-04-25T12:32:37.415Z,7.74
2023-04-25T12:35:09.285Z,7.90
2023-04-25T12:37:41.155Z,7.75
2023-04-25T12:40:12.829Z,7.76
2023-04-25T12:42:44.336Z,8.06
2023-04-25T12:45:16.120Z,8.04
2023-04-25T12:47:47.779Z,7.74
2023-04-25T12:50:19.438Z,7.71
2023-04-25T12:52:51.207Z,8.09
2023-04-25T12:55:22.815Z,7.90
2023-04-25T12:57:54.348Z,7.57
2023-04-25T13:00:26.019Z,7.79
2023-04-25T13:02:57.726Z,8.04
2023-04-25T13:05:29.266Z,7.84
2023-04-25T13:08:00.732Z,7.77
2023-04-25T13:10:32.346Z,7.63
2023-04-25T13:13:03.899Z,7.57
2023-04-25T13:15:36.356Z,7.71
2023-04-25T13:18:07.973Z,7.73
2023-04-25T13:20:39.535Z,7.50
2023-04-25T13:23:11.209Z,7.75
2023-04-25T13:25:42.723Z,7.67
2023-04-25T13:28:14.952Z,7.68
2023-04-25T13:30:46.708Z,7.35
2023-04-25T13:33:18.761Z,7.08
2023-04-25T13:35:54.849Z,6.98
2023-04-25T13:38:26.742Z,7.05
2023-04-25T13:40:58.305Z,7.45
2023-04-25T13:43:29.807Z,7.63
2023-04-25T13:46:01.392Z,7.29
2023-04-25T13:48:32.992Z,7.44
2023-04-25T13:51:04.482Z,7.32
2023-04-25T13:53:36.186Z,6.83
2023-04-25T13:56:07.748Z,6.97
2023-04-25T13:58:39.270Z,6.80
2023-04-25T14:01:10.780Z,6.87
2023-04-25T14:03:43.076Z,7.01
2023-04-25T14:06:14.643Z,7.25
2023-04-25T14:08:46.474Z,7.37
2023-04-25T14:11:19.218Z,7.70
2023-04-25T14:13:50.989Z,7.79
2023-04-25T14:16:23.880Z,8.01
2023-04-25T14:18:55.575Z,8.37
2023-04-25T14:21:29.084Z,8.54
2023-04-25T14:24:00.728Z,8.45
2023-04-25T14:26:32.287Z,8.59
2023-04-25T14:29:06.052Z,8.63
2023-04-25T14:31:37.571Z,8.40
2023-04-25T14:34:09.589Z,8.42
2023-04-25T14:36:41.092Z,8.58
2023-04-25T14:39:15.055Z,8.34
2023-04-25T14:41:46.570Z,8.41
2023-04-25T14:44:18.642Z,8.20
2023-04-25T14:46:52.662Z,8.37
2023-04-25T14:49:24.287Z,8.54
2023-04-25T14:51:55.938Z,8.56
2023-04-25T14:54:27.440Z,8.70
2023-04-25T14:56:59.022Z,8.95
2023-04-25T14:59:30.498Z,8.86
2023-04-25T15:02:02.034Z,9.01
2023-04-25T15:04:34.293Z,9.02
2023-04-25T15:07:06.125Z,8.87
2023-04-25T15:09:37.662Z,8.37
2023-04-25T15:12:09.263Z,8.42
2023-04-25T15:14:41.095Z,8.18
2023-04-25T15:17:14.912Z,8.02
2023-04-25T15:19:46.484Z,8.23
2023-04-25T15:22:18.016Z,8.27
2023-04-25T15:24:49.702Z,9.62
2023-04-25T15:27:24.135Z,10.96
2023-04-25T15:29:55.886Z,11.72
2023-04-25T15:32:27.580Z,11.76
2023-04-25T15:34:59.257Z,10.76
2023-04-25T15:37:31.315Z,10.37
2023-04-25T15:40:11.845Z,9.26
2023-04-25T15:42:48.852Z,9.04
2023-04-25T15:45:24.120Z,8.73
2023-04-25T15:47:56.968Z,8.71
2023-04-25T15:50:28.524Z,7.99
2023-04-25T15:53:00.016Z,8.01
2023-04-25T15:55:31.992Z,7.92
2023-04-25T15:58:03.489Z,7.67
2023-04-25T16:00:36.243Z,7.51
2023-04-25T16:03:07.935Z,7.56
2023-04-25T16:05:39.578Z,7.53
2023-04-25T16:08:11.076Z,7.58
2023-04-25T16:10:42.942Z,7.49
2023-04-25T16:13:14.522Z,7.51
2023-04-25T16:15:46.051Z,7.40
2023-04-25T16:18:17.924Z,7.14
2023-04-25T16:20:49.626Z,7.15
2023-04-25T16:23:21.169Z,7.14
2023-04-25T16:25:52.908Z,7.31
2023-04-25T16:28:24.370Z,7.48
2023-04-25T16:30:56.239Z,7.41
2023-04-25T16:33:27.860Z,7.65
2023-04-25T16:35:59.410Z,7.56
2023-04-25T16:38:30.975Z,7.80
2023-04-25T16:41:02.633Z,7.95
2023-04-25T16:43:34.366Z,7.83
2023-04-25T16:46:05.989Z,7.83
2023-04-25T16:48:37.458Z,7.88
2023-04-25T16:51:08.978Z,7.71
2023-04-25T16:53:41.402Z,7.71
2023-04-25T16:56:13.183Z,7.61
2023-04-25T16:58:44.726Z,7.62
2023-04-25T17:01:17.218Z,7.51
2023-04-25T17:03:49.244Z,7.39
2023-04-25T17:06:20.924Z,7.42
2023-04-25T17:08:52.553Z,7.37
2023-04-25T17:11:24.425Z,7.51
2023-04-25T17:13:56.037Z,7.48
2023-04-25T17:16:35.299Z,7.47
2023-04-25T17:19:07.456Z,7.45
2023-04-25T17:21:39.000Z,7.49
2023-04-25T17:24:11.784Z,7.51
2023-04-25T17:26:43.388Z,7.53
2023-04-25T17:29:15.410Z,7.62
2023-04-25T17:31:47.049Z,7.57
2023-04-25T17:34:18.605Z,7.57
2023-04-25T17:36:50.181Z,7.58
2023-04-25T17:39:21.619Z,7.56
2023-04-25T17:41:53.142Z,7.50
2023-04-25T17:44:24.815Z,7.37
2023-04-25T17:46:56.343Z,7.34
2023-04-25T17:49:28.060Z,7.35
2023-04-25T17:52:00.752Z,7.41
2023-04-25T17:54:32.351Z,7.35
2023-04-25T17:57:04.720Z,7.34
2023-04-25T17:59:36.420Z,7.37
2023-04-25T18:02:08.593Z,7.39
2023-04-25T18:04:40.332Z,7.23
2023-04-25T18:07:12.336Z,7.03
2023-04-25T18:09:44.848Z,6.89
2023-04-25T18:12:17.969Z,6.45
2023-04-25T18:14:49.457Z,6.33
2023-04-25T18:17:25.094Z,6.16
2023-04-25T18:19:56.650Z,6.07
2023-04-25T18:22:28.823Z,5.95
2023-04-25T18:25:01.394Z,5.81
2023-04-25T18:27:32.901Z,5.65
2023-04-25T18:30:11.543Z,5.70
2023-04-25T18:32:43.366Z,5.80
2023-04-25T18:35:17.330Z,5.81
2023-04-25T18:37:49.570Z,5.96
2023-04-25T18:40:21.290Z,6.06
2023-04-25T18:42:53.130Z,6.11
2023-04-25T18:45:25.040Z,6.09
2023-04-25T18:47:56.946Z,6.11
2023-04-25T18:50:28.605Z,6.12
2023-04-25T18:53:00.393Z,6.19
2023-04-25T18:55:32.074Z,6.05
2023-04-25T18:58:03.853Z,6.09
2023-04-25T19:00:35.653Z,6.12
2023-04-25T19:03:07.661Z,6.16
2023-04-25T19:05:39.452Z,6.26
2023-04-25T19:08:10.924Z,6.31
2023-04-25T19:10:42.439Z,6.39
2023-04-25T19:13:15.129Z,6.44
2023-04-25T19:15:49.691Z,6.40
2023-04-25T19:18:21.228Z,6.48
2023-04-25T19:20:52.848Z,6.55
2023-04-25T19:23:26.238Z,6.59
2023-04-25T19:25:58.012Z,6.66
2023-04-25T19:28:30.445Z,6.66
2023-04-25T19:31:02.450Z,6.57
2023-04-25T19:33:34.427Z,6.48
2023-04-25T19:36:06.069Z,6.39
2023-04-25T19:38:37.513Z,6.35
2023-04-25T19:41:08.988Z,6.27
2023-04-25T19:43:40.518Z,6.22
2023-04-25T19:46:12.136Z,6.29
2023-04-25T19:48:44.183Z,6.30
2023-04-25T19:51:15.685Z,6.33
2023-04-25T19:53:47.106Z,6.40
2023-04-25T19:56:18.631Z,6.47
2023-04-25T19:58:51.073Z,6.52
2023-04-25T20:01:23.260Z,6.59
2023-04-25T20:03:55.582Z,6.63
2023-04-25T20:06:28.895Z,6.66
2023-04-25T20:09:01.288Z,6.69
2023-04-25T20:11:33.648Z,6.65
2023-04-25T20:14:05.724Z,6.62
2023-04-25T20:16:37.668Z,6.39
2023-04-25T20:19:09.442Z,6.39
2023-04-25T20:21:41.284Z,6.36
2023-04-25T20:24:13.636Z,6.15
2023-04-25T20:26:45.463Z,6.05
2023-04-25T20:29:17.276Z,5.96
2023-04-25T20:31:50.770Z,6.00
2023-04-25T20:34:22.728Z,6.03
2023-04-25T20:36:54.533Z,6.11
2023-04-25T20:39:27.684Z,6.14
2023-04-25T20:42:01.913Z,6.20
2023-04-25T20:44:33.395Z,6.14
2023-04-25T20:47:05.739Z,6.27
2023-04-25T20:49:38.394Z,6.25
2023-04-25T20:52:11.308Z,6.35
2023-04-25T20:54:43.235Z,6.23
2023-04-25T20:57:14.749Z,6.24
2023-04-25T20:59:47.839Z,6.10
2023-04-25T21:02:20.788Z,6.14
2023-04-25T21:04:52.801Z,6.05
2023-04-25T21:07:24.456Z,6.11
2023-04-25T21:09:56.031Z,6.05
2023-04-25T21:12:27.833Z,6.02
2023-04-25T21:15:00.719Z,6.02
2023-04-25T21:17:32.289Z,6.00
2023-04-25T21:20:10.256Z,6.04
2023-04-25T21:22:49.360Z,6.06
2023-04-25T21:25:29.272Z,5.98
2023-04-25T21:28:02.620Z,6.07
2023-04-25T21:30:34.621Z,6.12
2023-04-25T21:33:06.541Z,6.17
2023-04-25T21:35:38.305Z,6.15
2023-04-25T21:38:10.065Z,6.22
2023-04-25T21:40:41.995Z,6.29
2023-04-25T21:43:13.817Z,6.21
2023-04-25T21:48:23.178Z,6.24
2023-04-25T21:50:55.662Z,6.29
2023-04-25T21:53:27.248Z,6.35
2023-04-25T21:55:58.749Z,6.31
2023-04-25T21:58:30.252Z,6.40
2023-04-25T22:01:01.840Z,6.34
2023-04-25T22:03:34.214Z,6.32
2023-04-25T22:06:06.061Z,6.25
2023-04-25T22:08:37.649Z,6.26
2023-04-25T22:11:09.371Z,6.29
2023-04-25T22:13:40.944Z,6.31
2023-04-25T22:16:12.681Z,6.29
2023-04-25T22:18:46.800Z,6.31
2023-04-25T22:21:18.411Z,6.30
2023-04-25T22:23:52.137Z,6.14
2023-04-25T22:26:25.406Z,6.11
2023-04-25T22:28:56.942Z,5.94
2023-04-25T22:31:29.035Z,5.97
2023-04-25T22:34:00.695Z,6.07
2023-04-25T22:36:33.203Z,6.06
2023-04-25T22:39:04.718Z,6.15
2023-04-25T22:41:36.415Z,6.16
2023-04-25T22:44:07.952Z,6.12
2023-04-25T22:46:39.557Z,6.13
2023-04-25T22:49:11.969Z,6.12
2023-04-25T22:51:43.416Z,6.10
2023-04-25T22:54:14.898Z,5.90
2023-04-25T22:56:46.386Z,5.93
2023-04-25T22:59:20.727Z,6.05
2023-04-25T23:01:52.570Z,5.92
2023-04-25T23:04:25.452Z,5.82
2023-04-25T23:06:57.206Z,5.60
2023-04-25T23:09:28.788Z,5.57
2023-04-25T23:12:00.376Z,5.49
2023-04-25T23:14:33.159Z,5.54
2023-04-25T23:17:05.148Z,5.50
2023-04-25T23:19:36.793Z,5.59
2023-04-25T23:22:08.581Z,5.54
2023-04-25T23:24:40.513Z,5.65
2023-04-25T23:27:12.020Z,5.58
2023-04-25T23:29:43.767Z,5.48
2023-04-25T23:32:15.248Z,5.61
2023-04-25T23:34:46.690Z,5.51
2023-04-25T23:37:18.243Z,5.62
2023-04-25T23:39:53.024Z,5.73
2023-04-25T23:42:24.588Z,5.73
2023-04-25T23:44:56.064Z,5.81
2023-04-25T23:47:27.590Z,5.77
2023-04-25T23:49:59.104Z,5.69
2023-04-25T23:52:30.634Z,5.63
2023-04-25T23:55:02.128Z,5.56
2023-04-25T23:57:33.884Z,5.60
